sensor_id;sensor_type;location;lat;lon;timestamp;P1;durP1;ratioP1;P2;durP2;ratioP2
72439;SDS011;60446;50.752;4.352;2023-04-08T00:01:00;13.10;;;3.75;;
72439;SDS011;60446;50.752;4.352;2023-04-08T00:03:27;12.27;;;3.78;;
72439;SDS011;60446;50.752;4.352;2023-04-08T00:05:55;17.05;;;3.92;;
72439;SDS011;60446;50.752;4.352;2023-04-08T00:08:22;13.33;;;3.60;;
72439;SDS011;60446;50.752;4.352;2023-04-08T00:10:49;14.10;;;3.42;;
72439;SDS011;60446;50.752;4.352;2023-04-08T00:13:16;12.45;;;3.22;;
72439;SDS011;60446;50.752;4.352;2023-04-08T00:15:44;17.50;;;4.15;;
72439;SDS011;60446;50.752;4.352;2023-04-08T00:18:12;12.25;;;3.67;;
72439;SDS011;60446;50.752;4.352;2023-04-08T00:20:42;19.20;;;3.83;;
72439;SDS011;60446;50.752;4.352;2023-04-08T00:23:09;18.70;;;3.72;;
72439;SDS011;60446;50.752;4.352;2023-04-08T00:25:36;11.80;;;3.53;;
72439;SDS011;60446;50.752;4.352;2023-04-08T00:28:03;11.60;;;3.33;;
72439;SDS011;60446;50.752;4.352;2023-04-08T00:30:31;16.15;;;3.80;;
72439;SDS011;60446;50.752;4.352;2023-04-08T00:32:58;13.77;;;4.07;;
72439;SDS011;60446;50.752;4.352;2023-04-08T00:35:25;10.70;;;3.60;;
72439;SDS011;60446;50.752;4.352;2023-04-08T00:37:53;13.27;;;3.90;;
72439;SDS011;60446;50.752;4.352;2023-04-08T00:40:20;16.10;;;4.13;;
72439;SDS011;60446;50.752;4.352;2023-04-08T00:42:47;10.73;;;3.40;;
72439;SDS011;60446;50.752;4.352;2023-04-08T00:45:14;14.77;;;4.03;;
72439;SDS011;60446;50.752;4.352;2023-04-08T00:47:42;11.10;;;3.67;;
72439;SDS011;60446;50.752;4.352;2023-04-08T00:50:09;11.45;;;3.88;;
72439;SDS011;60446;50.752;4.352;2023-04-08T00:52:37;15.63;;;4.20;;
72439;SDS011;60446;50.752;4.352;2023-04-08T00:55:04;13.20;;;3.85;;
72439;SDS011;60446;50.752;4.352;2023-04-08T00:57:34;16.03;;;3.67;;
72439;SDS011;60446;50.752;4.352;2023-04-08T01:00:03;20.13;;;4.70;;
72439;SDS011;60446;50.752;4.352;2023-04-08T01:02:38;14.93;;;3.80;;
72439;SDS011;60446;50.752;4.352;2023-04-08T01:05:28;15.27;;;4.13;;
72439;SDS011;60446;50.752;4.352;2023-04-08T01:08:28;13.27;;;3.45;;
72439;SDS011;60446;50.752;4.352;2023-04-08T01:10:58;12.93;;;3.80;;
72439;SDS011;60446;50.752;4.352;2023-04-08T01:13:29;12.93;;;4.00;;
72439;SDS011;60446;50.752;4.352;2023-04-08T01:16:01;20.60;;;4.22;;
72439;SDS011;60446;50.752;4.352;2023-04-08T01:18:28;14.68;;;4.00;;
72439;SDS011;60446;50.752;4.352;2023-04-08T01:20:58;15.27;;;4.22;;
72439;SDS011;60446;50.752;4.352;2023-04-08T01:24:12;18.30;;;3.87;;
72439;SDS011;60446;50.752;4.352;2023-04-08T01:26:34;14.98;;;3.75;;
72439;SDS011;60446;50.752;4.352;2023-04-08T01:29:02;18.38;;;4.45;;
72439;SDS011;60446;50.752;4.352;2023-04-08T01:31:30;16.42;;;4.22;;
72439;SDS011;60446;50.752;4.352;2023-04-08T01:33:58;14.93;;;4.35;;
72439;SDS011;60446;50.752;4.352;2023-04-08T01:36:27;16.57;;;5.03;;
72439;SDS011;60446;50.752;4.352;2023-04-08T01:38:59;15.45;;;4.47;;
72439;SDS011;60446;50.752;4.352;2023-04-08T01:41:28;15.40;;;4.65;;
72439;SDS011;60446;50.752;4.352;2023-04-08T01:43:56;15.93;;;4.22;;
72439;SDS011;60446;50.752;4.352;2023-04-08T01:46:24;16.15;;;4.32;;
72439;SDS011;60446;50.752;4.352;2023-04-08T01:48:53;14.53;;;3.93;;
72439;SDS011;60446;50.752;4.352;2023-04-08T01:51:21;19.98;;;4.78;;
72439;SDS011;60446;50.752;4.352;2023-04-08T01:53:48;14.88;;;3.75;;
72439;SDS011;60446;50.752;4.352;2023-04-08T01:56:15;18.85;;;5.55;;
72439;SDS011;60446;50.752;4.352;2023-04-08T01:58:45;16.63;;;4.45;;
72439;SDS011;60446;50.752;4.352;2023-04-08T02:01:19;13.27;;;4.33;;
72439;SDS011;60446;50.752;4.352;2023-04-08T02:03:49;20.08;;;4.20;;
72439;SDS011;60446;50.752;4.352;2023-04-08T02:06:22;18.08;;;5.40;;
72439;SDS011;60446;50.752;4.352;2023-04-08T02:08:53;16.90;;;5.47;;
72439;SDS011;60446;50.752;4.352;2023-04-08T02:11:21;17.92;;;5.30;;
72439;SDS011;60446;50.752;4.352;2023-04-08T02:13:49;22.17;;;5.20;;
72439;SDS011;60446;50.752;4.352;2023-04-08T02:19:13;16.23;;;5.20;;
72439;SDS011;60446;50.752;4.352;2023-04-08T02:21:47;16.92;;;5.10;;
72439;SDS011;60446;50.752;4.352;2023-04-08T02:24:18;16.25;;;5.38;;
72439;SDS011;60446;50.752;4.352;2023-04-08T02:26:46;23.00;;;5.17;;
72439;SDS011;60446;50.752;4.352;2023-04-08T02:29:17;17.48;;;5.25;;
72439;SDS011;60446;50.752;4.352;2023-04-08T02:31:45;24.63;;;6.55;;
72439;SDS011;60446;50.752;4.352;2023-04-08T02:34:13;16.83;;;5.47;;
72439;SDS011;60446;50.752;4.352;2023-04-08T02:36:41;20.52;;;5.38;;
72439;SDS011;60446;50.752;4.352;2023-04-08T02:39:12;21.10;;;6.70;;
72439;SDS011;60446;50.752;4.352;2023-04-08T02:41:39;20.05;;;6.32;;
72439;SDS011;60446;50.752;4.352;2023-04-08T02:44:06;18.05;;;6.53;;
72439;SDS011;60446;50.752;4.352;2023-04-08T02:46:35;23.23;;;6.10;;
72439;SDS011;60446;50.752;4.352;2023-04-08T02:49:02;19.17;;;6.57;;
72439;SDS011;60446;50.752;4.352;2023-04-08T02:51:29;20.00;;;6.43;;
72439;SDS011;60446;50.752;4.352;2023-04-08T02:53:57;23.58;;;6.43;;
72439;SDS011;60446;50.752;4.352;2023-04-08T02:56:24;21.58;;;6.65;;
72439;SDS011;60446;50.752;4.352;2023-04-08T02:58:51;22.45;;;6.25;;
72439;SDS011;60446;50.752;4.352;2023-04-08T03:01:18;26.63;;;7.00;;
72439;SDS011;60446;50.752;4.352;2023-04-08T03:03:46;26.20;;;6.37;;
72439;SDS011;60446;50.752;4.352;2023-04-08T03:06:13;25.95;;;6.70;;
72439;SDS011;60446;50.752;4.352;2023-04-08T03:08:40;21.48;;;6.60;;
72439;SDS011;60446;50.752;4.352;2023-04-08T03:11:08;25.63;;;6.65;;
72439;SDS011;60446;50.752;4.352;2023-04-08T03:13:35;21.73;;;6.45;;
72439;SDS011;60446;50.752;4.352;2023-04-08T03:16:02;19.57;;;6.33;;
72439;SDS011;60446;50.752;4.352;2023-04-08T03:18:30;19.80;;;7.03;;
72439;SDS011;60446;50.752;4.352;2023-04-08T03:20:57;17.83;;;6.57;;
72439;SDS011;60446;50.752;4.352;2023-04-08T03:23:24;21.80;;;7.32;;
72439;SDS011;60446;50.752;4.352;2023-04-08T03:25:51;21.77;;;6.57;;
72439;SDS011;60446;50.752;4.352;2023-04-08T03:28:19;21.77;;;6.03;;
72439;SDS011;60446;50.752;4.352;2023-04-08T03:30:46;23.85;;;7.35;;
72439;SDS011;60446;50.752;4.352;2023-04-08T03:33:13;21.77;;;6.53;;
72439;SDS011;60446;50.752;4.352;2023-04-08T03:35:40;24.85;;;6.63;;
72439;SDS011;60446;50.752;4.352;2023-04-08T03:38:07;20.17;;;6.30;;
72439;SDS011;60446;50.752;4.352;2023-04-08T03:40:34;21.63;;;6.50;;
72439;SDS011;60446;50.752;4.352;2023-04-08T03:43:01;21.90;;;6.78;;
72439;SDS011;60446;50.752;4.352;2023-04-08T03:45:28;20.27;;;6.03;;
72439;SDS011;60446;50.752;4.352;2023-04-08T03:47:56;26.50;;;7.07;;
72439;SDS011;60446;50.752;4.352;2023-04-08T03:50:23;22.63;;;7.32;;
72439;SDS011;60446;50.752;4.352;2023-04-08T03:52:50;18.97;;;6.43;;
72439;SDS011;60446;50.752;4.352;2023-04-08T03:55:17;20.48;;;6.90;;
72439;SDS011;60446;50.752;4.352;2023-04-08T03:57:44;24.02;;;6.90;;
72439;SDS011;60446;50.752;4.352;2023-04-08T04:00:11;22.45;;;7.40;;
72439;SDS011;60446;50.752;4.352;2023-04-08T04:02:39;22.75;;;7.32;;
72439;SDS011;60446;50.752;4.352;2023-04-08T04:05:06;20.77;;;6.77;;
72439;SDS011;60446;50.752;4.352;2023-04-08T04:07:34;28.90;;;7.93;;
72439;SDS011;60446;50.752;4.352;2023-04-08T04:10:01;23.63;;;7.50;;
72439;SDS011;60446;50.752;4.352;2023-04-08T04:12:28;25.50;;;7.40;;
72439;SDS011;60446;50.752;4.352;2023-04-08T04:14:55;24.13;;;7.70;;
72439;SDS011;60446;50.752;4.352;2023-04-08T04:17:22;23.47;;;6.40;;
72439;SDS011;60446;50.752;4.352;2023-04-08T04:19:50;22.30;;;7.35;;
72439;SDS011;60446;50.752;4.352;2023-04-08T04:22:18;24.75;;;6.40;;
72439;SDS011;60446;50.752;4.352;2023-04-08T04:24:48;21.10;;;7.22;;
72439;SDS011;60446;50.752;4.352;2023-04-08T04:27:15;21.42;;;6.22;;
72439;SDS011;60446;50.752;4.352;2023-04-08T04:29:42;23.57;;;7.13;;
72439;SDS011;60446;50.752;4.352;2023-04-08T04:32:10;24.15;;;7.65;;
72439;SDS011;60446;50.752;4.352;2023-04-08T04:34:37;24.42;;;7.25;;
72439;SDS011;60446;50.752;4.352;2023-04-08T04:37:04;23.20;;;7.80;;
72439;SDS011;60446;50.752;4.352;2023-04-08T04:39:31;24.15;;;6.97;;
72439;SDS011;60446;50.752;4.352;2023-04-08T04:41:58;21.83;;;7.87;;
72439;SDS011;60446;50.752;4.352;2023-04-08T04:44:26;28.70;;;7.47;;
72439;SDS011;60446;50.752;4.352;2023-04-08T04:46:53;24.02;;;7.45;;
72439;SDS011;60446;50.752;4.352;2023-04-08T04:49:20;26.83;;;6.40;;
72439;SDS011;60446;50.752;4.352;2023-04-08T04:51:47;25.02;;;7.47;;
72439;SDS011;60446;50.752;4.352;2023-04-08T04:54:14;25.73;;;7.50;;
72439;SDS011;60446;50.752;4.352;2023-04-08T04:56:41;19.50;;;6.43;;
72439;SDS011;60446;50.752;4.352;2023-04-08T04:59:08;31.35;;;8.10;;
72439;SDS011;60446;50.752;4.352;2023-04-08T05:01:36;25.75;;;7.75;;
72439;SDS011;60446;50.752;4.352;2023-04-08T05:04:03;22.58;;;8.10;;
72439;SDS011;60446;50.752;4.352;2023-04-08T05:06:30;22.90;;;8.37;;
72439;SDS011;60446;50.752;4.352;2023-04-08T05:08:57;30.20;;;7.63;;
72439;SDS011;60446;50.752;4.352;2023-04-08T05:11:24;29.10;;;8.25;;
72439;SDS011;60446;50.752;4.352;2023-04-08T05:13:52;22.15;;;8.55;;
72439;SDS011;60446;50.752;4.352;2023-04-08T05:16:19;31.33;;;8.07;;
72439;SDS011;60446;50.752;4.352;2023-04-08T05:18:46;24.30;;;7.57;;
72439;SDS011;60446;50.752;4.352;2023-04-08T05:21:14;21.33;;;7.03;;
72439;SDS011;60446;50.752;4.352;2023-04-08T05:23:41;26.33;;;7.65;;
72439;SDS011;60446;50.752;4.352;2023-04-08T05:26:08;23.48;;;7.00;;
72439;SDS011;60446;50.752;4.352;2023-04-08T05:28:35;23.33;;;7.68;;
72439;SDS011;60446;50.752;4.352;2023-04-08T05:31:02;26.60;;;7.97;;
72439;SDS011;60446;50.752;4.352;2023-04-08T05:33:29;22.42;;;7.13;;
72439;SDS011;60446;50.752;4.352;2023-04-08T05:35:57;19.75;;;7.30;;
72439;SDS011;60446;50.752;4.352;2023-04-08T05:38:24;29.33;;;8.30;;
72439;SDS011;60446;50.752;4.352;2023-04-08T05:40:51;25.25;;;7.65;;
72439;SDS011;60446;50.752;4.352;2023-04-08T05:43:18;24.23;;;7.70;;
72439;SDS011;60446;50.752;4.352;2023-04-08T05:45:45;28.85;;;7.70;;
72439;SDS011;60446;50.752;4.352;2023-04-08T05:48:12;27.10;;;8.18;;
72439;SDS011;60446;50.752;4.352;2023-04-08T05:50:39;24.23;;;7.90;;
72439;SDS011;60446;50.752;4.352;2023-04-08T05:53:08;27.45;;;7.85;;
72439;SDS011;60446;50.752;4.352;2023-04-08T05:55:35;28.97;;;7.70;;
72439;SDS011;60446;50.752;4.352;2023-04-08T05:58:02;30.73;;;8.48;;
72439;SDS011;60446;50.752;4.352;2023-04-08T06:00:30;25.58;;;7.95;;
72439;SDS011;60446;50.752;4.352;2023-04-08T06:02:57;25.40;;;8.52;;
72439;SDS011;60446;50.752;4.352;2023-04-08T06:05:25;29.65;;;9.13;;
72439;SDS011;60446;50.752;4.352;2023-04-08T06:07:52;29.83;;;8.47;;
72439;SDS011;60446;50.752;4.352;2023-04-08T06:10:19;25.85;;;7.53;;
72439;SDS011;60446;50.752;4.352;2023-04-08T06:12:46;24.13;;;7.72;;
72439;SDS011;60446;50.752;4.352;2023-04-08T06:15:14;25.17;;;8.35;;
72439;SDS011;60446;50.752;4.352;2023-04-08T06:17:41;26.65;;;8.15;;
72439;SDS011;60446;50.752;4.352;2023-04-08T06:20:09;25.43;;;7.93;;
72439;SDS011;60446;50.752;4.352;2023-04-08T06:22:36;24.83;;;8.25;;
72439;SDS011;60446;50.752;4.352;2023-04-08T06:25:03;26.95;;;8.15;;
72439;SDS011;60446;50.752;4.352;2023-04-08T06:27:31;25.27;;;7.55;;
72439;SDS011;60446;50.752;4.352;2023-04-08T06:29:58;24.83;;;8.38;;
72439;SDS011;60446;50.752;4.352;2023-04-08T06:32:25;23.60;;;8.17;;
72439;SDS011;60446;50.752;4.352;2023-04-08T06:34:52;28.98;;;8.38;;
72439;SDS011;60446;50.752;4.352;2023-04-08T06:37:20;24.02;;;8.27;;
72439;SDS011;60446;50.752;4.352;2023-04-08T06:39:47;23.67;;;7.85;;
72439;SDS011;60446;50.752;4.352;2023-04-08T06:42:14;24.80;;;8.35;;
72439;SDS011;60446;50.752;4.352;2023-04-08T06:45:04;22.70;;;7.60;;
72439;SDS011;60446;50.752;4.352;2023-04-08T06:47:32;27.88;;;7.20;;
72439;SDS011;60446;50.752;4.352;2023-04-08T06:50:00;28.00;;;8.05;;
72439;SDS011;60446;50.752;4.352;2023-04-08T06:52:27;32.25;;;8.82;;
72439;SDS011;60446;50.752;4.352;2023-04-08T06:54:54;27.75;;;8.30;;
72439;SDS011;60446;50.752;4.352;2023-04-08T06:57:21;26.17;;;8.37;;
72439;SDS011;60446;50.752;4.352;2023-04-08T06:59:48;27.55;;;8.45;;
72439;SDS011;60446;50.752;4.352;2023-04-08T07:02:16;27.33;;;7.35;;
72439;SDS011;60446;50.752;4.352;2023-04-08T07:04:43;25.35;;;8.65;;
72439;SDS011;60446;50.752;4.352;2023-04-08T07:07:12;20.23;;;7.57;;
72439;SDS011;60446;50.752;4.352;2023-04-08T07:09:39;24.87;;;7.53;;
72439;SDS011;60446;50.752;4.352;2023-04-08T07:12:08;22.27;;;8.43;;
72439;SDS011;60446;50.752;4.352;2023-04-08T07:14:35;23.02;;;7.65;;
72439;SDS011;60446;50.752;4.352;2023-04-08T07:17:02;26.42;;;7.97;;
72439;SDS011;60446;50.752;4.352;2023-04-08T07:19:30;29.80;;;8.55;;
72439;SDS011;60446;50.752;4.352;2023-04-08T07:21:57;26.37;;;7.97;;
72439;SDS011;60446;50.752;4.352;2023-04-08T07:24:24;22.17;;;7.50;;
72439;SDS011;60446;50.752;4.352;2023-04-08T07:26:52;24.40;;;8.25;;
72439;SDS011;60446;50.752;4.352;2023-04-08T07:29:21;30.80;;;7.70;;
72439;SDS011;60446;50.752;4.352;2023-04-08T07:31:48;26.20;;;7.72;;
72439;SDS011;60446;50.752;4.352;2023-04-08T07:34:17;23.20;;;6.97;;
72439;SDS011;60446;50.752;4.352;2023-04-08T07:36:44;21.98;;;7.55;;
72439;SDS011;60446;50.752;4.352;2023-04-08T07:39:11;22.52;;;6.97;;
72439;SDS011;60446;50.752;4.352;2023-04-08T07:41:38;22.02;;;6.57;;
72439;SDS011;60446;50.752;4.352;2023-04-08T07:44:05;20.33;;;6.80;;
72439;SDS011;60446;50.752;4.352;2023-04-08T07:46:35;24.40;;;7.20;;
72439;SDS011;60446;50.752;4.352;2023-04-08T07:49:04;23.60;;;6.60;;
72439;SDS011;60446;50.752;4.352;2023-04-08T07:51:31;20.27;;;6.90;;
72439;SDS011;60446;50.752;4.352;2023-04-08T07:53:58;22.75;;;7.10;;
72439;SDS011;60446;50.752;4.352;2023-04-08T07:56:25;22.80;;;6.45;;
72439;SDS011;60446;50.752;4.352;2023-04-08T07:58:53;20.53;;;6.10;;
72439;SDS011;60446;50.752;4.352;2023-04-08T08:01:21;21.15;;;6.65;;
72439;SDS011;60446;50.752;4.352;2023-04-08T08:03:49;17.58;;;5.22;;
72439;SDS011;60446;50.752;4.352;2023-04-08T08:06:18;21.35;;;6.38;;
72439;SDS011;60446;50.752;4.352;2023-04-08T08:08:46;17.92;;;6.20;;
72439;SDS011;60446;50.752;4.352;2023-04-08T08:11:13;17.87;;;5.20;;
72439;SDS011;60446;50.752;4.352;2023-04-08T08:13:40;19.38;;;5.00;;
72439;SDS011;60446;50.752;4.352;2023-04-08T08:16:08;14.90;;;4.63;;
72439;SDS011;60446;50.752;4.352;2023-04-08T08:18:37;14.32;;;4.68;;
72439;SDS011;60446;50.752;4.352;2023-04-08T08:21:06;19.48;;;4.63;;
72439;SDS011;60446;50.752;4.352;2023-04-08T08:23:34;17.23;;;4.77;;
72439;SDS011;60446;50.752;4.352;2023-04-08T08:26:02;17.58;;;5.60;;
72439;SDS011;60446;50.752;4.352;2023-04-08T08:28:32;17.75;;;4.38;;
72439;SDS011;60446;50.752;4.352;2023-04-08T08:30:59;15.15;;;4.45;;
72439;SDS011;60446;50.752;4.352;2023-04-08T08:33:27;13.80;;;4.95;;
72439;SDS011;60446;50.752;4.352;2023-04-08T08:35:54;18.70;;;5.70;;
72439;SDS011;60446;50.752;4.352;2023-04-08T08:38:23;15.40;;;4.53;;
72439;SDS011;60446;50.752;4.352;2023-04-08T08:40:58;16.83;;;5.35;;
72439;SDS011;60446;50.752;4.352;2023-04-08T08:43:27;18.80;;;5.53;;
72439;SDS011;60446;50.752;4.352;2023-04-08T08:45:54;14.52;;;5.00;;
72439;SDS011;60446;50.752;4.352;2023-04-08T08:48:22;16.07;;;5.13;;
72439;SDS011;60446;50.752;4.352;2023-04-08T08:50:49;18.33;;;6.03;;
72439;SDS011;60446;50.752;4.352;2023-04-08T08:53:16;12.55;;;5.00;;
72439;SDS011;60446;50.752;4.352;2023-04-08T08:55:45;17.60;;;4.95;;
72439;SDS011;60446;50.752;4.352;2023-04-08T08:58:15;16.17;;;5.50;;
72439;SDS011;60446;50.752;4.352;2023-04-08T09:00:42;22.00;;;5.97;;
72439;SDS011;60446;50.752;4.352;2023-04-08T09:03:26;16.35;;;5.78;;
72439;SDS011;60446;50.752;4.352;2023-04-08T09:08:28;16.27;;;5.38;;
72439;SDS011;60446;50.752;4.352;2023-04-08T09:11:36;19.15;;;5.82;;
72439;SDS011;60446;50.752;4.352;2023-04-08T09:13:56;14.00;;;4.57;;
72439;SDS011;60446;50.752;4.352;2023-04-08T09:16:23;13.30;;;4.82;;
72439;SDS011;60446;50.752;4.352;2023-04-08T09:18:50;14.00;;;4.90;;
72439;SDS011;60446;50.752;4.352;2023-04-08T09:21:18;17.58;;;5.00;;
72439;SDS011;60446;50.752;4.352;2023-04-08T09:23:50;15.60;;;4.63;;
72439;SDS011;60446;50.752;4.352;2023-04-08T09:29:03;12.23;;;4.05;;
72439;SDS011;60446;50.752;4.352;2023-04-08T09:31:53;16.20;;;4.75;;
72439;SDS011;60446;50.752;4.352;2023-04-08T09:34:23;10.23;;;3.75;;
72439;SDS011;60446;50.752;4.352;2023-04-08T09:36:52;15.55;;;4.65;;
72439;SDS011;60446;50.752;4.352;2023-04-08T09:39:21;15.33;;;4.90;;
72439;SDS011;60446;50.752;4.352;2023-04-08T09:41:48;14.23;;;5.03;;
72439;SDS011;60446;50.752;4.352;2023-04-08T09:44:18;15.48;;;4.95;;
72439;SDS011;60446;50.752;4.352;2023-04-08T09:49:45;14.75;;;4.38;;
72439;SDS011;60446;50.752;4.352;2023-04-08T09:52:43;15.60;;;4.60;;
72439;SDS011;60446;50.752;4.352;2023-04-08T09:55:16;14.70;;;4.22;;
72439;SDS011;60446;50.752;4.352;2023-04-08T10:00:32;16.55;;;5.32;;
72439;SDS011;60446;50.752;4.352;2023-04-08T10:06:04;13.47;;;4.60;;
72439;SDS011;60446;50.752;4.352;2023-04-08T10:08:33;11.65;;;4.50;;
72439;SDS011;60446;50.752;4.352;2023-04-08T10:11:01;14.95;;;5.55;;
72439;SDS011;60446;50.752;4.352;2023-04-08T10:13:28;14.15;;;5.50;;
72439;SDS011;60446;50.752;4.352;2023-04-08T10:18:52;15.63;;;5.77;;
72439;SDS011;60446;50.752;4.352;2023-04-08T10:24:00;13.00;;;4.93;;
72439;SDS011;60446;50.752;4.352;2023-04-08T10:26:32;16.05;;;5.03;;
72439;SDS011;60446;50.752;4.352;2023-04-08T10:31:47;15.47;;;5.60;;
72439;SDS011;60446;50.752;4.352;2023-04-08T10:34:16;12.05;;;4.70;;
72439;SDS011;60446;50.752;4.352;2023-04-08T10:36:44;9.85;;;3.88;;
72439;SDS011;60446;50.752;4.352;2023-04-08T10:39:13;11.60;;;3.80;;
72439;SDS011;60446;50.752;4.352;2023-04-08T10:41:42;9.45;;;3.22;;
72439;SDS011;60446;50.752;4.352;2023-04-08T10:44:20;10.70;;;2.87;;
72439;SDS011;60446;50.752;4.352;2023-04-08T10:46:50;9.10;;;3.35;;
72439;SDS011;60446;50.752;4.352;2023-04-08T10:49:18;13.80;;;3.90;;
72439;SDS011;60446;50.752;4.352;2023-04-08T10:51:47;17.08;;;4.20;;
72439;SDS011;60446;50.752;4.352;2023-04-08T10:54:15;13.00;;;4.63;;
72439;SDS011;60446;50.752;4.352;2023-04-08T10:56:47;17.30;;;5.87;;
72439;SDS011;60446;50.752;4.352;2023-04-08T10:59:29;13.20;;;5.43;;
72439;SDS011;60446;50.752;4.352;2023-04-08T11:01:58;20.10;;;6.07;;
72439;SDS011;60446;50.752;4.352;2023-04-08T11:04:26;18.27;;;5.80;;
72439;SDS011;60446;50.752;4.352;2023-04-08T11:06:54;17.20;;;6.05;;
72439;SDS011;60446;50.752;4.352;2023-04-08T11:09:21;16.17;;;6.20;;
72439;SDS011;60446;50.752;4.352;2023-04-08T11:11:48;16.90;;;5.50;;
72439;SDS011;60446;50.752;4.352;2023-04-08T11:14:17;16.05;;;5.13;;
72439;SDS011;60446;50.752;4.352;2023-04-08T11:16:47;18.17;;;6.72;;
72439;SDS011;60446;50.752;4.352;2023-04-08T11:19:14;16.92;;;6.85;;
72439;SDS011;60446;50.752;4.352;2023-04-08T11:21:41;14.10;;;5.30;;
72439;SDS011;60446;50.752;4.352;2023-04-08T11:24:09;18.42;;;5.97;;
72439;SDS011;60446;50.752;4.352;2023-04-08T11:26:42;18.40;;;5.47;;
72439;SDS011;60446;50.752;4.352;2023-04-08T11:29:12;17.80;;;6.43;;
72439;SDS011;60446;50.752;4.352;2023-04-08T11:31:40;18.00;;;6.30;;
72439;SDS011;60446;50.752;4.352;2023-04-08T11:34:09;17.40;;;5.47;;
72439;SDS011;60446;50.752;4.352;2023-04-08T11:36:38;14.90;;;5.53;;
72439;SDS011;60446;50.752;4.352;2023-04-08T11:39:08;18.20;;;5.28;;
72439;SDS011;60446;50.752;4.352;2023-04-08T11:41:38;16.92;;;5.13;;
72439;SDS011;60446;50.752;4.352;2023-04-08T11:44:06;19.63;;;5.25;;
72439;SDS011;60446;50.752;4.352;2023-04-08T11:46:34;13.60;;;5.63;;
72439;SDS011;60446;50.752;4.352;2023-04-08T11:49:03;16.55;;;5.43;;
72439;SDS011;60446;50.752;4.352;2023-04-08T11:51:33;17.25;;;5.53;;
72439;SDS011;60446;50.752;4.352;2023-04-08T11:54:03;14.18;;;6.00;;
72439;SDS011;60446;50.752;4.352;2023-04-08T11:56:43;14.25;;;5.75;;
72439;SDS011;60446;50.752;4.352;2023-04-08T11:59:14;16.43;;;5.23;;
72439;SDS011;60446;50.752;4.352;2023-04-08T12:01:41;15.50;;;5.22;;
72439;SDS011;60446;50.752;4.352;2023-04-08T12:04:09;14.77;;;4.90;;
72439;SDS011;60446;50.752;4.352;2023-04-08T12:06:37;12.93;;;4.72;;
72439;SDS011;60446;50.752;4.352;2023-04-08T12:09:04;15.43;;;5.60;;
72439;SDS011;60446;50.752;4.352;2023-04-08T12:11:32;12.40;;;4.93;;
72439;SDS011;60446;50.752;4.352;2023-04-08T12:13:59;14.35;;;5.30;;
72439;SDS011;60446;50.752;4.352;2023-04-08T12:16:26;13.95;;;5.10;;
72439;SDS011;60446;50.752;4.352;2023-04-08T12:18:53;14.52;;;5.38;;
72439;SDS011;60446;50.752;4.352;2023-04-08T12:21:20;14.30;;;4.97;;
72439;SDS011;60446;50.752;4.352;2023-04-08T12:23:47;14.40;;;5.07;;
72439;SDS011;60446;50.752;4.352;2023-04-08T12:26:15;11.55;;;5.15;;
72439;SDS011;60446;50.752;4.352;2023-04-08T12:28:42;10.27;;;3.95;;
72439;SDS011;60446;50.752;4.352;2023-04-08T12:31:09;11.13;;;4.05;;
72439;SDS011;60446;50.752;4.352;2023-04-08T12:33:37;9.68;;;4.10;;
72439;SDS011;60446;50.752;4.352;2023-04-08T12:36:04;13.87;;;4.00;;
72439;SDS011;60446;50.752;4.352;2023-04-08T12:38:31;12.98;;;4.25;;
72439;SDS011;60446;50.752;4.352;2023-04-08T12:40:58;12.88;;;3.70;;
72439;SDS011;60446;50.752;4.352;2023-04-08T12:43:26;11.27;;;3.83;;
72439;SDS011;60446;50.752;4.352;2023-04-08T12:45:53;14.85;;;3.97;;
72439;SDS011;60446;50.752;4.352;2023-04-08T12:48:20;12.33;;;4.30;;
72439;SDS011;60446;50.752;4.352;2023-04-08T12:50:47;11.38;;;4.25;;
72439;SDS011;60446;50.752;4.352;2023-04-08T12:53:14;10.55;;;3.88;;
72439;SDS011;60446;50.752;4.352;2023-04-08T12:55:41;9.18;;;3.92;;
72439;SDS011;60446;50.752;4.352;2023-04-08T12:58:10;12.18;;;4.20;;
72439;SDS011;60446;50.752;4.352;2023-04-08T13:00:37;11.43;;;4.47;;
72439;SDS011;60446;50.752;4.352;2023-04-08T13:03:05;13.55;;;4.80;;
72439;SDS011;60446;50.752;4.352;2023-04-08T13:05:32;15.07;;;4.60;;
72439;SDS011;60446;50.752;4.352;2023-04-08T13:08:09;12.75;;;4.97;;
72439;SDS011;60446;50.752;4.352;2023-04-08T13:10:40;16.48;;;6.00;;
72439;SDS011;60446;50.752;4.352;2023-04-08T13:13:07;17.70;;;6.23;;
72439;SDS011;60446;50.752;4.352;2023-04-08T13:15:35;16.77;;;6.65;;
72439;SDS011;60446;50.752;4.352;2023-04-08T13:18:02;17.25;;;5.45;;
72439;SDS011;60446;50.752;4.352;2023-04-08T13:20:30;14.73;;;5.63;;
72439;SDS011;60446;50.752;4.352;2023-04-08T13:22:57;14.93;;;5.05;;
72439;SDS011;60446;50.752;4.352;2023-04-08T13:25:25;13.47;;;5.67;;
72439;SDS011;60446;50.752;4.352;2023-04-08T13:27:53;15.30;;;5.75;;
72439;SDS011;60446;50.752;4.352;2023-04-08T13:30:20;17.00;;;5.30;;
72439;SDS011;60446;50.752;4.352;2023-04-08T13:32:47;14.95;;;5.70;;
72439;SDS011;60446;50.752;4.352;2023-04-08T13:35:14;15.15;;;5.70;;
72439;SDS011;60446;50.752;4.352;2023-04-08T13:37:41;15.77;;;6.10;;
72439;SDS011;60446;50.752;4.352;2023-04-08T13:40:09;15.80;;;6.30;;
72439;SDS011;60446;50.752;4.352;2023-04-08T13:42:37;14.60;;;5.55;;
72439;SDS011;60446;50.752;4.352;2023-04-08T13:45:04;14.52;;;6.00;;
72439;SDS011;60446;50.752;4.352;2023-04-08T13:47:32;15.82;;;5.72;;
72439;SDS011;60446;50.752;4.352;2023-04-08T13:50:03;15.03;;;6.30;;
72439;SDS011;60446;50.752;4.352;2023-04-08T13:52:34;15.93;;;6.45;;
72439;SDS011;60446;50.752;4.352;2023-04-08T13:55:01;14.88;;;6.50;;
72439;SDS011;60446;50.752;4.352;2023-04-08T13:57:28;17.35;;;6.35;;
72439;SDS011;60446;50.752;4.352;2023-04-08T13:59:56;17.05;;;6.20;;
72439;SDS011;60446;50.752;4.352;2023-04-08T14:02:25;17.33;;;6.83;;
72439;SDS011;60446;50.752;4.352;2023-04-08T14:04:53;13.50;;;5.70;;
72439;SDS011;60446;50.752;4.352;2023-04-08T14:07:20;16.65;;;5.93;;
72439;SDS011;60446;50.752;4.352;2023-04-08T14:09:48;15.90;;;6.70;;
72439;SDS011;60446;50.752;4.352;2023-04-08T14:12:19;17.63;;;6.32;;
72439;SDS011;60446;50.752;4.352;2023-04-08T14:14:46;17.30;;;6.80;;
72439;SDS011;60446;50.752;4.352;2023-04-08T14:17:13;19.48;;;6.78;;
72439;SDS011;60446;50.752;4.352;2023-04-08T14:19:42;18.33;;;6.53;;
72439;SDS011;60446;50.752;4.352;2023-04-08T14:22:12;15.30;;;5.95;;
72439;SDS011;60446;50.752;4.352;2023-04-08T14:24:46;16.58;;;5.97;;
72439;SDS011;60446;50.752;4.352;2023-04-08T14:27:13;15.07;;;5.80;;
72439;SDS011;60446;50.752;4.352;2023-04-08T14:29:41;14.65;;;5.78;;
72439;SDS011;60446;50.752;4.352;2023-04-08T14:32:14;16.55;;;6.55;;
72439;SDS011;60446;50.752;4.352;2023-04-08T14:34:46;14.55;;;5.65;;
72439;SDS011;60446;50.752;4.352;2023-04-08T14:37:16;17.23;;;6.53;;
72439;SDS011;60446;50.752;4.352;2023-04-08T14:39:43;16.37;;;6.33;;
72439;SDS011;60446;50.752;4.352;2023-04-08T14:42:19;17.05;;;6.20;;
72439;SDS011;60446;50.752;4.352;2023-04-08T14:45:01;13.48;;;6.10;;
72439;SDS011;60446;50.752;4.352;2023-04-08T14:47:33;13.95;;;6.18;;
72439;SDS011;60446;50.752;4.352;2023-04-08T14:50:07;13.35;;;6.07;;
72439;SDS011;60446;50.752;4.352;2023-04-08T14:52:35;14.13;;;6.37;;
72439;SDS011;60446;50.752;4.352;2023-04-08T14:55:03;15.77;;;6.53;;
72439;SDS011;60446;50.752;4.352;2023-04-08T14:57:31;16.83;;;6.60;;
72439;SDS011;60446;50.752;4.352;2023-04-08T14:59:59;17.80;;;7.15;;
72439;SDS011;60446;50.752;4.352;2023-04-08T15:02:29;22.65;;;7.20;;
72439;SDS011;60446;50.752;4.352;2023-04-08T15:04:57;14.70;;;6.53;;
72439;SDS011;60446;50.752;4.352;2023-04-08T15:07:24;16.95;;;6.75;;
72439;SDS011;60446;50.752;4.352;2023-04-08T15:09:52;15.45;;;6.18;;